sensor_id;sensor_type;location;lat;lon;timestamp;P1;durP1;ratioP1;P2;durP2;ratioP2
24557;SDS011;12726;49.148;8.582;2023-01-10T00:01:04;2.38;;;0.60;;
24557;SDS011;12726;49.148;8.582;2023-01-10T00:03:50;3.78;;;0.70;;
24557;SDS011;12726;49.148;8.582;2023-01-10T00:06:36;1.67;;;0.60;;
24557;SDS011;12726;49.148;8.582;2023-01-10T00:09:22;1.95;;;0.50;;
24557;SDS011;12726;49.148;8.582;2023-01-10T00:12:07;3.05;;;1.00;;
24557;SDS011;12726;49.148;8.582;2023-01-10T00:15:11;0.98;;;0.80;;
24557;SDS011;12726;49.148;8.582;2023-01-10T00:17:59;1.35;;;0.88;;
24557;SDS011;12726;49.148;8.582;2023-01-10T00:20:45;0.73;;;0.63;;
24557;SDS011;12726;49.148;8.582;2023-01-10T00:23:31;1.88;;;0.80;;
24557;SDS011;12726;49.148;8.582;2023-01-10T00:26:18;2.00;;;0.70;;
24557;SDS011;12726;49.148;8.582;2023-01-10T00:29:03;0.65;;;0.57;;
24557;SDS011;12726;49.148;8.582;2023-01-10T00:31:50;1.98;;;0.68;;
24557;SDS011;12726;49.148;8.582;2023-01-10T00:34:36;2.72;;;0.75;;
24557;SDS011;12726;49.148;8.582;2023-01-10T00:37:21;1.55;;;0.70;;
24557;SDS011;12726;49.148;8.582;2023-01-10T00:40:07;1.85;;;0.82;;
24557;SDS011;12726;49.148;8.582;2023-01-10T00:42:55;1.13;;;0.70;;
24557;SDS011;12726;49.148;8.582;2023-01-10T00:45:58;2.78;;;0.80;;
24557;SDS011;12726;49.148;8.582;2023-01-10T00:48:45;1.23;;;0.65;;
24557;SDS011;12726;49.148;8.582;2023-01-10T00:51:30;0.68;;;0.60;;
24557;SDS011;12726;49.148;8.582;2023-01-10T00:54:16;1.60;;;0.90;;
24557;SDS011;12726;49.148;8.582;2023-01-10T00:57:01;3.17;;;1.08;;
24557;SDS011;12726;49.148;8.582;2023-01-10T00:59:48;1.42;;;0.60;;
24557;SDS011;12726;49.148;8.582;2023-01-10T01:02:33;0.63;;;0.60;;
24557;SDS011;12726;49.148;8.582;2023-01-10T01:05:19;1.23;;;0.68;;
24557;SDS011;12726;49.148;8.582;2023-01-10T01:08:04;2.72;;;0.80;;
24557;SDS011;12726;49.148;8.582;2023-01-10T01:10:50;3.70;;;0.70;;
24557;SDS011;12726;49.148;8.582;2023-01-10T01:13:35;2.63;;;0.60;;
24557;SDS011;12726;49.148;8.582;2023-01-10T01:16:22;0.82;;;0.50;;
24557;SDS011;12726;49.148;8.582;2023-01-10T01:19:07;1.00;;;0.63;;
24557;SDS011;12726;49.148;8.582;2023-01-10T01:21:52;2.20;;;0.60;;
24557;SDS011;12726;49.148;8.582;2023-01-10T01:24:38;2.10;;;0.60;;
24557;SDS011;12726;49.148;8.582;2023-01-10T01:27:23;0.80;;;0.55;;
24557;SDS011;12726;49.148;8.582;2023-01-10T01:30:09;1.85;;;0.63;;
24557;SDS011;12726;49.148;8.582;2023-01-10T01:32:57;2.45;;;0.65;;
24557;SDS011;12726;49.148;8.582;2023-01-10T01:35:42;1.15;;;0.52;;
24557;SDS011;12726;49.148;8.582;2023-01-10T01:38:28;1.08;;;0.38;;
24557;SDS011;12726;49.148;8.582;2023-01-10T01:41:13;1.17;;;0.45;;
24557;SDS011;12726;49.148;8.582;2023-01-10T01:44:17;0.55;;;0.55;;
24557;SDS011;12726;49.148;8.582;2023-01-10T01:47:04;1.15;;;0.50;;
24557;SDS011;12726;49.148;8.582;2023-01-10T01:49:52;0.75;;;0.40;;
24557;SDS011;12726;49.148;8.582;2023-01-10T01:52:38;0.77;;;0.40;;
24557;SDS011;12726;49.148;8.582;2023-01-10T01:55:24;0.47;;;0.43;;
24557;SDS011;12726;49.148;8.582;2023-01-10T01:58:16;2.53;;;0.40;;
24557;SDS011;12726;49.148;8.582;2023-01-10T02:01:04;0.63;;;0.40;;
24557;SDS011;12726;49.148;8.582;2023-01-10T02:03:50;0.52;;;0.50;;
24557;SDS011;12726;49.148;8.582;2023-01-10T02:06:42;1.50;;;0.35;;
24557;SDS011;12726;49.148;8.582;2023-01-10T02:09:30;1.70;;;0.80;;
24557;SDS011;12726;49.148;8.582;2023-01-10T02:12:21;0.90;;;0.50;;
24557;SDS011;12726;49.148;8.582;2023-01-10T02:15:07;2.45;;;0.40;;
24557;SDS011;12726;49.148;8.582;2023-01-10T02:17:54;0.32;;;0.32;;
24557;SDS011;12726;49.148;8.582;2023-01-10T02:20:44;0.60;;;0.40;;
24557;SDS011;12726;49.148;8.582;2023-01-10T02:24:06;1.52;;;0.43;;
24557;SDS011;12726;49.148;8.582;2023-01-10T02:27:11;1.98;;;0.50;;
24557;SDS011;12726;49.148;8.582;2023-01-10T02:33:19;4.20;;;0.50;;
24557;SDS011;12726;49.148;8.582;2023-01-10T02:36:13;0.73;;;0.60;;
24557;SDS011;12726;49.148;8.582;2023-01-10T02:39:10;0.50;;;0.50;;
24557;SDS011;12726;49.148;8.582;2023-01-10T02:44:52;1.30;;;0.57;;
24557;SDS011;12726;49.148;8.582;2023-01-10T02:47:42;0.73;;;0.43;;
24557;SDS011;12726;49.148;8.582;2023-01-10T02:50:30;1.05;;;0.50;;
24557;SDS011;12726;49.148;8.582;2023-01-10T02:53:30;2.40;;;0.80;;
24557;SDS011;12726;49.148;8.582;2023-01-10T03:03:12;2.90;;;0.60;;
24557;SDS011;12726;49.148;8.582;2023-01-10T03:06:14;3.45;;;0.70;;
24557;SDS011;12726;49.148;8.582;2023-01-10T03:09:09;2.90;;;0.52;;
24557;SDS011;12726;49.148;8.582;2023-01-10T03:12:03;0.82;;;0.65;;
24557;SDS011;12726;49.148;8.582;2023-01-10T03:14:56;2.67;;;0.50;;
24557;SDS011;12726;49.148;8.582;2023-01-10T03:17:43;2.05;;;0.70;;
24557;SDS011;12726;49.148;8.582;2023-01-10T03:20:34;3.22;;;1.00;;
24557;SDS011;12726;49.148;8.582;2023-01-10T03:23:24;2.35;;;0.70;;
24557;SDS011;12726;49.148;8.582;2023-01-10T03:26:11;0.85;;;0.60;;
24557;SDS011;12726;49.148;8.582;2023-01-10T03:28:59;1.25;;;0.70;;
24557;SDS011;12726;49.148;8.582;2023-01-10T03:31:50;3.63;;;0.50;;
24557;SDS011;12726;49.148;8.582;2023-01-10T03:34:39;2.78;;;0.75;;
24557;SDS011;12726;49.148;8.582;2023-01-10T03:37:26;1.65;;;0.80;;
24557;SDS011;12726;49.148;8.582;2023-01-10T03:40:20;3.00;;;1.25;;
24557;SDS011;12726;49.148;8.582;2023-01-10T03:43:14;1.48;;;0.80;;
24557;SDS011;12726;49.148;8.582;2023-01-10T03:46:22;4.35;;;1.10;;
24557;SDS011;12726;49.148;8.582;2023-01-10T03:49:12;1.48;;;0.90;;
24557;SDS011;12726;49.148;8.582;2023-01-10T03:51:59;1.38;;;0.70;;
24557;SDS011;12726;49.148;8.582;2023-01-10T03:54:47;1.85;;;0.73;;
24557;SDS011;12726;49.148;8.582;2023-01-10T03:57:34;3.53;;;0.93;;
24557;SDS011;12726;49.148;8.582;2023-01-10T04:00:19;2.10;;;0.77;;
24557;SDS011;12726;49.148;8.582;2023-01-10T04:03:05;3.05;;;0.60;;
24557;SDS011;12726;49.148;8.582;2023-01-10T04:05:52;2.00;;;0.60;;
24557;SDS011;12726;49.148;8.582;2023-01-10T04:08:37;2.67;;;0.80;;
24557;SDS011;12726;49.148;8.582;2023-01-10T04:11:23;1.05;;;0.73;;
24557;SDS011;12726;49.148;8.582;2023-01-10T04:14:09;1.30;;;0.68;;
24557;SDS011;12726;49.148;8.582;2023-01-10T04:16:55;4.55;;;0.80;;
24557;SDS011;12726;49.148;8.582;2023-01-10T04:19:40;3.85;;;0.90;;
24557;SDS011;12726;49.148;8.582;2023-01-10T04:22:26;1.55;;;0.90;;
24557;SDS011;12726;49.148;8.582;2023-01-10T04:25:11;2.33;;;0.70;;
24557;SDS011;12726;49.148;8.582;2023-01-10T04:27:56;5.40;;;1.23;;
24557;SDS011;12726;49.148;8.582;2023-01-10T04:30:43;5.95;;;1.17;;
24557;SDS011;12726;49.148;8.582;2023-01-10T04:33:28;5.07;;;1.20;;
24557;SDS011;12726;49.148;8.582;2023-01-10T04:36:13;7.13;;;1.43;;
24557;SDS011;12726;49.148;8.582;2023-01-10T04:38:59;4.53;;;1.10;;
24557;SDS011;12726;49.148;8.582;2023-01-10T04:41:44;5.20;;;1.30;;
24557;SDS011;12726;49.148;8.582;2023-01-10T04:44:30;6.20;;;1.30;;
24557;SDS011;12726;49.148;8.582;2023-01-10T04:47:16;4.03;;;1.17;;
24557;SDS011;12726;49.148;8.582;2023-01-10T04:50:02;4.60;;;1.77;;
24557;SDS011;12726;49.148;8.582;2023-01-10T04:52:48;5.43;;;1.33;;
24557;SDS011;12726;49.148;8.582;2023-01-10T04:55:33;6.32;;;1.35;;
24557;SDS011;12726;49.148;8.582;2023-01-10T04:58:19;8.13;;;1.55;;
24557;SDS011;12726;49.148;8.582;2023-01-10T05:01:07;5.88;;;1.30;;
24557;SDS011;12726;49.148;8.582;2023-01-10T05:03:55;9.35;;;1.90;;
24557;SDS011;12726;49.148;8.582;2023-01-10T05:06:40;10.18;;;1.88;;
24557;SDS011;12726;49.148;8.582;2023-01-10T05:09:26;8.30;;;1.52;;
24557;SDS011;12726;49.148;8.582;2023-01-10T05:12:11;5.47;;;1.80;;
24557;SDS011;12726;49.148;8.582;2023-01-10T05:14:57;10.07;;;1.50;;
24557;SDS011;12726;49.148;8.582;2023-01-10T05:17:42;11.30;;;2.00;;
24557;SDS011;12726;49.148;8.582;2023-01-10T05:20:29;10.75;;;2.17;;
24557;SDS011;12726;49.148;8.582;2023-01-10T05:23:15;11.23;;;1.80;;
24557;SDS011;12726;49.148;8.582;2023-01-10T05:26:04;9.30;;;1.70;;
24557;SDS011;12726;49.148;8.582;2023-01-10T05:28:50;5.95;;;1.70;;
24557;SDS011;12726;49.148;8.582;2023-01-10T05:31:35;5.72;;;1.55;;
24557;SDS011;12726;49.148;8.582;2023-01-10T05:34:20;10.60;;;1.90;;
24557;SDS011;12726;49.148;8.582;2023-01-10T05:37:07;10.52;;;2.38;;
24557;SDS011;12726;49.148;8.582;2023-01-10T05:39:53;15.00;;;2.15;;
24557;SDS011;12726;49.148;8.582;2023-01-10T05:42:38;9.55;;;1.85;;
24557;SDS011;12726;49.148;8.582;2023-01-10T05:45:23;10.75;;;1.75;;
24557;SDS011;12726;49.148;8.582;2023-01-10T05:48:09;10.95;;;1.92;;
24557;SDS011;12726;49.148;8.582;2023-01-10T05:50:54;10.48;;;2.20;;
24557;SDS011;12726;49.148;8.582;2023-01-10T05:53:41;12.90;;;1.83;;
24557;SDS011;12726;49.148;8.582;2023-01-10T05:56:27;6.38;;;1.50;;
24557;SDS011;12726;49.148;8.582;2023-01-10T05:59:12;6.55;;;1.58;;
24557;SDS011;12726;49.148;8.582;2023-01-10T06:01:58;8.55;;;1.63;;
24557;SDS011;12726;49.148;8.582;2023-01-10T06:04:43;13.85;;;2.10;;
24557;SDS011;12726;49.148;8.582;2023-01-10T06:07:28;9.50;;;2.35;;
24557;SDS011;12726;49.148;8.582;2023-01-10T06:10:16;10.05;;;1.80;;
24557;SDS011;12726;49.148;8.582;2023-01-10T06:13:01;9.70;;;1.75;;
24557;SDS011;12726;49.148;8.582;2023-01-10T06:15:48;14.23;;;1.98;;
24557;SDS011;12726;49.148;8.582;2023-01-10T06:18:33;8.65;;;1.92;;
24557;SDS011;12726;49.148;8.582;2023-01-10T06:21:19;13.57;;;3.72;;
24557;SDS011;12726;49.148;8.582;2023-01-10T06:24:04;9.82;;;2.05;;
24557;SDS011;12726;49.148;8.582;2023-01-10T06:26:52;11.43;;;2.47;;
24557;SDS011;12726;49.148;8.582;2023-01-10T06:29:37;15.18;;;2.00;;
24557;SDS011;12726;49.148;8.582;2023-01-10T06:32:22;10.48;;;2.08;;
24557;SDS011;12726;49.148;8.582;2023-01-10T06:35:08;12.65;;;1.83;;
24557;SDS011;12726;49.148;8.582;2023-01-10T06:37:54;5.75;;;1.20;;
24557;SDS011;12726;49.148;8.582;2023-01-10T06:40:39;7.32;;;2.33;;
24557;SDS011;12726;49.148;8.582;2023-01-10T06:43:26;14.27;;;2.10;;
24557;SDS011;12726;49.148;8.582;2023-01-10T06:46:12;10.38;;;2.00;;
24557;SDS011;12726;49.148;8.582;2023-01-10T06:48:59;9.73;;;2.22;;
24557;SDS011;12726;49.148;8.582;2023-01-10T06:51:44;10.57;;;2.08;;
24557;SDS011;12726;49.148;8.582;2023-01-10T06:54:30;8.35;;;1.70;;
24557;SDS011;12726;49.148;8.582;2023-01-10T06:57:15;8.02;;;1.83;;
24557;SDS011;12726;49.148;8.582;2023-01-10T07:00:02;8.82;;;2.17;;
24557;SDS011;12726;49.148;8.582;2023-01-10T07:02:49;8.23;;;2.13;;
24557;SDS011;12726;49.148;8.582;2023-01-10T07:05:34;9.93;;;2.28;;
24557;SDS011;12726;49.148;8.582;2023-01-10T07:08:19;8.15;;;1.88;;
24557;SDS011;12726;49.148;8.582;2023-01-10T07:11:05;6.45;;;1.63;;
24557;SDS011;12726;49.148;8.582;2023-01-10T07:13:51;7.55;;;1.80;;
24557;SDS011;12726;49.148;8.582;2023-01-10T07:16:38;9.10;;;1.85;;
24557;SDS011;12726;49.148;8.582;2023-01-10T07:19:24;8.25;;;1.88;;
24557;SDS011;12726;49.148;8.582;2023-01-10T07:22:10;10.68;;;2.10;;
24557;SDS011;12726;49.148;8.582;2023-01-10T07:24:55;14.43;;;1.92;;
24557;SDS011;12726;49.148;8.582;2023-01-10T07:27:40;10.57;;;2.05;;
24557;SDS011;12726;49.148;8.582;2023-01-10T07:30:25;13.88;;;2.55;;
24557;SDS011;12726;49.148;8.582;2023-01-10T07:33:12;8.35;;;1.88;;
24557;SDS011;12726;49.148;8.582;2023-01-10T07:35:59;12.75;;;2.33;;
24557;SDS011;12726;49.148;8.582;2023-01-10T07:38:44;15.85;;;2.45;;
24557;SDS011;12726;49.148;8.582;2023-01-10T07:41:30;13.38;;;2.58;;
24557;SDS011;12726;49.148;8.582;2023-01-10T07:44:15;5.97;;;1.88;;
24557;SDS011;12726;49.148;8.582;2023-01-10T07:47:00;13.82;;;1.98;;
24557;SDS011;12726;49.148;8.582;2023-01-10T07:49:47;13.90;;;2.53;;
24557;SDS011;12726;49.148;8.582;2023-01-10T07:52:33;15.88;;;2.30;;
24557;SDS011;12726;49.148;8.582;2023-01-10T07:55:18;13.05;;;2.28;;
24557;SDS011;12726;49.148;8.582;2023-01-10T07:58:04;7.65;;;2.50;;
24557;SDS011;12726;49.148;8.582;2023-01-10T08:00:50;9.30;;;2.03;;
24557;SDS011;12726;49.148;8.582;2023-01-10T08:03:36;14.35;;;2.30;;
24557;SDS011;12726;49.148;8.582;2023-01-10T08:06:23;9.38;;;2.17;;
24557;SDS011;12726;49.148;8.582;2023-01-10T08:09:08;13.70;;;2.30;;
24557;SDS011;12726;49.148;8.582;2023-01-10T08:11:53;10.85;;;2.00;;
24557;SDS011;12726;49.148;8.582;2023-01-10T08:14:39;10.90;;;3.97;;
24557;SDS011;12726;49.148;8.582;2023-01-10T08:17:24;13.07;;;2.58;;
24557;SDS011;12726;49.148;8.582;2023-01-10T08:20:10;12.23;;;3.15;;
24557;SDS011;12726;49.148;8.582;2023-01-10T08:22:57;5.68;;;1.88;;
24557;SDS011;12726;49.148;8.582;2023-01-10T08:25:43;11.25;;;2.25;;
24557;SDS011;12726;49.148;8.582;2023-01-10T08:28:28;10.55;;;2.30;;
24557;SDS011;12726;49.148;8.582;2023-01-10T08:31:14;10.13;;;2.78;;
24557;SDS011;12726;49.148;8.582;2023-01-10T08:33:59;11.65;;;1.95;;
24557;SDS011;12726;49.148;8.582;2023-01-10T08:36:44;10.30;;;1.92;;
24557;SDS011;12726;49.148;8.582;2023-01-10T08:39:34;10.93;;;1.90;;
24557;SDS011;12726;49.148;8.582;2023-01-10T08:42:22;12.50;;;2.47;;
24557;SDS011;12726;49.148;8.582;2023-01-10T08:45:07;13.18;;;2.28;;
24557;SDS011;12726;49.148;8.582;2023-01-10T08:47:53;13.30;;;2.65;;
24557;SDS011;12726;49.148;8.582;2023-01-10T08:50:38;10.18;;;2.45;;
24557;SDS011;12726;49.148;8.582;2023-01-10T08:53:24;11.25;;;2.60;;
24557;SDS011;12726;49.148;8.582;2023-01-10T08:56:15;9.88;;;3.30;;
24557;SDS011;12726;49.148;8.582;2023-01-10T08:59:01;9.55;;;2.38;;
24557;SDS011;12726;49.148;8.582;2023-01-10T09:01:46;12.43;;;2.63;;
24557;SDS011;12726;49.148;8.582;2023-01-10T09:04:31;13.43;;;2.67;;
24557;SDS011;12726;49.148;8.582;2023-01-10T09:07:17;11.80;;;3.08;;
24557;SDS011;12726;49.148;8.582;2023-01-10T09:10:03;9.95;;;2.80;;
24557;SDS011;12726;49.148;8.582;2023-01-10T09:12:50;9.82;;;2.47;;
24557;SDS011;12726;49.148;8.582;2023-01-10T09:15:42;14.35;;;2.83;;
24557;SDS011;12726;49.148;8.582;2023-01-10T09:18:28;9.15;;;2.45;;
24557;SDS011;12726;49.148;8.582;2023-01-10T09:21:13;15.43;;;3.03;;
24557;SDS011;12726;49.148;8.582;2023-01-10T09:23:58;6.93;;;2.72;;
24557;SDS011;12726;49.148;8.582;2023-01-10T09:26:44;13.00;;;3.25;;
24557;SDS011;12726;49.148;8.582;2023-01-10T09:29:31;9.50;;;2.47;;
24557;SDS011;12726;49.148;8.582;2023-01-10T09:32:16;8.32;;;2.63;;
24557;SDS011;12726;49.148;8.582;2023-01-10T09:35:01;8.57;;;2.42;;
24557;SDS011;12726;49.148;8.582;2023-01-10T09:37:46;10.80;;;2.53;;
24557;SDS011;12726;49.148;8.582;2023-01-10T09:40:47;14.23;;;2.78;;
24557;SDS011;12726;49.148;8.582;2023-01-10T09:43:43;11.80;;;2.63;;
24557;SDS011;12726;49.148;8.582;2023-01-10T09:46:40;10.75;;;2.60;;
24557;SDS011;12726;49.148;8.582;2023-01-10T09:49:38;12.40;;;2.80;;
24557;SDS011;12726;49.148;8.582;2023-01-10T09:52:32;7.95;;;2.15;;
24557;SDS011;12726;49.148;8.582;2023-01-10T09:55:22;10.57;;;2.88;;
24557;SDS011;12726;49.148;8.582;2023-01-10T09:58:13;12.70;;;2.83;;
24557;SDS011;12726;49.148;8.582;2023-01-10T10:01:03;22.27;;;3.13;;
24557;SDS011;12726;49.148;8.582;2023-01-10T10:03:55;11.23;;;3.22;;
24557;SDS011;12726;49.148;8.582;2023-01-10T10:06:47;16.55;;;3.42;;
24557;SDS011;12726;49.148;8.582;2023-01-10T10:09:32;13.00;;;3.35;;
24557;SDS011;12726;49.148;8.582;2023-01-10T10:12:22;7.72;;;2.00;;
24557;SDS011;12726;49.148;8.582;2023-01-10T10:15:17;12.80;;;2.33;;
24557;SDS011;12726;49.148;8.582;2023-01-10T10:18:09;7.20;;;1.88;;
24557;SDS011;12726;49.148;8.582;2023-01-10T10:21:04;11.65;;;2.30;;
24557;SDS011;12726;49.148;8.582;2023-01-10T10:23:59;13.05;;;2.00;;
24557;SDS011;12726;49.148;8.582;2023-01-10T10:26:57;12.55;;;2.80;;
24557;SDS011;12726;49.148;8.582;2023-01-10T10:29:47;8.95;;;2.42;;
24557;SDS011;12726;49.148;8.582;2023-01-10T10:35:42;10.88;;;3.05;;
24557;SDS011;12726;49.148;8.582;2023-01-10T10:38:36;7.65;;;2.28;;
24557;SDS011;12726;49.148;8.582;2023-01-10T10:41:28;7.68;;;1.63;;
24557;SDS011;12726;49.148;8.582;2023-01-10T10:44:33;13.10;;;2.42;;
24557;SDS011;12726;49.148;8.582;2023-01-10T10:47:26;9.70;;;2.30;;
24557;SDS011;12726;49.148;8.582;2023-01-10T10:50:17;11.93;;;2.65;;
24557;SDS011;12726;49.148;8.582;2023-01-10T10:53:05;14.65;;;2.10;;
24557;SDS011;12726;49.148;8.582;2023-01-10T10:55:52;18.85;;;2.47;;
24557;SDS011;12726;49.148;8.582;2023-01-10T10:58:37;10.88;;;2.15;;
24557;SDS011;12726;49.148;8.582;2023-01-10T11:01:26;11.48;;;2.53;;
24557;SDS011;12726;49.148;8.582;2023-01-10T11:04:13;7.50;;;2.17;;
24557;SDS011;12726;49.148;8.582;2023-01-10T11:07:01;14.27;;;2.60;;
24557;SDS011;12726;49.148;8.582;2023-01-10T11:09:46;10.32;;;2.10;;
24557;SDS011;12726;49.148;8.582;2023-01-10T11:12:37;10.88;;;1.75;;
24557;SDS011;12726;49.148;8.582;2023-01-10T11:15:35;9.20;;;2.30;;
24557;SDS011;12726;49.148;8.582;2023-01-10T11:18:23;8.90;;;1.73;;
24557;SDS011;12726;49.148;8.582;2023-01-10T11:21:10;9.98;;;2.40;;
24557;SDS011;12726;49.148;8.582;2023-01-10T11:23:57;12.70;;;1.85;;
24557;SDS011;12726;49.148;8.582;2023-01-10T11:26:43;14.30;;;2.20;;
24557;SDS011;12726;49.148;8.582;2023-01-10T11:29:32;6.53;;;1.83;;
24557;SDS011;12726;49.148;8.582;2023-01-10T11:32:23;11.88;;;2.30;;
24557;SDS011;12726;49.148;8.582;2023-01-10T11:35:18;10.98;;;1.83;;
24557;SDS011;12726;49.148;8.582;2023-01-10T11:38:08;9.65;;;1.90;;
24557;SDS011;12726;49.148;8.582;2023-01-10T11:41:03;10.98;;;1.40;;
24557;SDS011;12726;49.148;8.582;2023-01-10T11:43:50;8.27;;;1.58;;
24557;SDS011;12726;49.148;8.582;2023-01-10T11:46:36;9.88;;;2.50;;
24557;SDS011;12726;49.148;8.582;2023-01-10T11:49:27;8.60;;;2.03;;
24557;SDS011;12726;49.148;8.582;2023-01-10T11:52:18;12.57;;;2.30;;
24557;SDS011;12726;49.148;8.582;2023-01-10T11:55:07;6.80;;;1.67;;
24557;SDS011;12726;49.148;8.582;2023-01-10T11:57:53;8.63;;;2.35;;
24557;SDS011;12726;49.148;8.582;2023-01-10T12:00:42;11.77;;;2.10;;
24557;SDS011;12726;49.148;8.582;2023-01-10T12:03:32;6.18;;;1.48;;
24557;SDS011;12726;49.148;8.582;2023-01-10T12:06:20;8.60;;;1.73;;
24557;SDS011;12726;49.148;8.582;2023-01-10T12:09:08;13.75;;;2.10;;
24557;SDS011;12726;49.148;8.582;2023-01-10T12:12:21;10.43;;;1.75;;
24557;SDS011;12726;49.148;8.582;2023-01-10T12:15:20;7.03;;;2.03;;
24557;SDS011;12726;49.148;8.582;2023-01-10T12:18:09;7.47;;;2.00;;
24557;SDS011;12726;49.148;8.582;2023-01-10T12:20:56;8.95;;;1.67;;
24557;SDS011;12726;49.148;8.582;2023-01-10T12:23:43;8.60;;;1.90;;
24557;SDS011;12726;49.148;8.582;2023-01-10T12:26:31;8.40;;;1.92;;
24557;SDS011;12726;49.148;8.582;2023-01-10T12:29:19;12.32;;;4.18;;
24557;SDS011;12726;49.148;8.582;2023-01-10T12:32:10;8.32;;;1.75;;
24557;SDS011;12726;49.148;8.582;2023-01-10T12:35:04;13.57;;;3.53;;
24557;SDS011;12726;49.148;8.582;2023-01-10T12:37:58;6.65;;;2.00;;
24557;SDS011;12726;49.148;8.582;2023-01-10T12:40:51;7.05;;;1.88;;
24557;SDS011;12726;49.148;8.582;2023-01-10T12:43:39;8.13;;;1.80;;
24557;SDS011;12726;49.148;8.582;2023-01-10T12:46:44;8.05;;;1.80;;
24557;SDS011;12726;49.148;8.582;2023-01-10T12:49:34;7.97;;;1.98;;
24557;SDS011;12726;49.148;8.582;2023-01-10T12:52:26;7.95;;;1.92;;
24557;SDS011;12726;49.148;8.582;2023-01-10T12:55:18;9.93;;;2.00;;
24557;SDS011;12726;49.148;8.582;2023-01-10T12:58:10;9.02;;;2.33;;
24557;SDS011;12726;49.148;8.582;2023-01-10T13:01:04;7.00;;;1.60;;
24557;SDS011;12726;49.148;8.582;2023-01-10T13:03:52;7.22;;;2.03;;
24557;SDS011;12726;49.148;8.582;2023-01-10T13:06:41;12.07;;;2.20;;
24557;SDS011;12726;49.148;8.582;2023-01-10T13:09:28;5.88;;;1.77;;
24557;SDS011;12726;49.148;8.582;2023-01-10T13:12:17;11.35;;;2.00;;
24557;SDS011;12726;49.148;8.582;2023-01-10T13:15:08;6.43;;;1.83;;
24557;SDS011;12726;49.148;8.582;2023-01-10T13:17:59;8.40;;;1.95;;
24557;SDS011;12726;49.148;8.582;2023-01-10T13:20:47;11.20;;;1.92;;
24557;SDS011;12726;49.148;8.582;2023-01-10T13:23:32;7.22;;;1.95;;
24557;SDS011;12726;49.148;8.582;2023-01-10T13:26:18;6.68;;;2.13;;
24557;SDS011;12726;49.148;8.582;2023-01-10T13:29:05;11.73;;;1.85;;
24557;SDS011;12726;49.148;8.582;2023-01-10T13:31:56;9.52;;;1.38;;
24557;SDS011;12726;49.148;8.582;2023-01-10T13:34:44;11.63;;;1.70;;
24557;SDS011;12726;49.148;8.582;2023-01-10T13:37:31;7.25;;;1.65;;
24557;SDS011;12726;49.148;8.582;2023-01-10T13:40:21;8.80;;;1.58;;
24557;SDS011;12726;49.148;8.582;2023-01-10T13:43:36;11.00;;;2.08;;
24557;SDS011;12726;49.148;8.582;2023-01-10T13:46:38;9.50;;;1.73;;
24557;SDS011;12726;49.148;8.582;2023-01-10T13:52:29;7.30;;;1.63;;
24557;SDS011;12726;49.148;8.582;2023-01-10T13:55:25;8.35;;;1.88;;
24557;SDS011;12726;49.148;8.582;2023-01-10T14:01:48;6.70;;;1.27;;
24557;SDS011;12726;49.148;8.582;2023-01-10T14:04:52;6.82;;;1.40;;
24557;SDS011;12726;49.148;8.582;2023-01-10T14:07:42;7.32;;;1.60;;
24557;SDS011;12726;49.148;8.582;2023-01-10T14:10:30;5.75;;;1.10;;
24557;SDS011;12726;49.148;8.582;2023-01-10T14:13:18;6.03;;;1.30;;
24557;SDS011;12726;49.148;8.582;2023-01-10T14:16:08;6.22;;;1.50;;
24557;SDS011;12726;49.148;8.582;2023-01-10T14:19:21;6.43;;;1.05;;
24557;SDS011;12726;49.148;8.582;2023-01-10T14:25:20;5.50;;;1.35;;
24557;SDS011;12726;49.148;8.582;2023-01-10T14:28:14;5.88;;;1.48;;
24557;SDS011;12726;49.148;8.582;2023-01-10T14:31:05;3.90;;;1.23;;
24557;SDS011;12726;49.148;8.582;2023-01-10T14:33:52;4.63;;;1.33;;
24557;SDS011;12726;49.148;8.582;2023-01-10T14:36:43;6.82;;;1.15;;
24557;SDS011;12726;49.148;8.582;2023-01-10T14:39:33;6.22;;;1.10;;
24557;SDS011;12726;49.148;8.582;2023-01-10T14:42:20;4.40;;;1.17;;
24557;SDS011;12726;49.148;8.582;2023-01-10T14:45:11;3.78;;;1.40;;
24557;SDS011;12726;49.148;8.582;2023-01-10T14:48:21;5.07;;;1.30;;
24557;SDS011;12726;49.148;8.582;2023-01-10T14:51:21;9.10;;;1.55;;
24557;SDS011;12726;49.148;8.582;2023-01-10T14:54:11;3.93;;;1.10;;
24557;SDS011;12726;49.148;8.582;2023-01-10T14:56:57;4.43;;;1.10;;
24557;SDS011;12726;49.148;8.582;2023-01-10T14:59:43;3.63;;;1.20;;
24557;SDS011;12726;49.148;8.582;2023-01-10T15:02:28;4.43;;;1.10;;
24557;SDS011;12726;49.148;8.582;2023-01-10T15:05:15;7.90;;;1.10;;
24557;SDS011;12726;49.148;8.582;2023-01-10T15:08:16;5.88;;;1.30;;
24557;SDS011;12726;49.148;8.582;2023-01-10T15:11:08;3.78;;;1.20;;
24557;SDS011;12726;49.148;8.582;2023-01-10T15:13:58;8.02;;;1.67;;
24557;SDS011;12726;49.148;8.582;2023-01-10T15:16:46;4.75;;;1.15;;
24557;SDS011;12726;49.148;8.582;2023-01-10T15:19:33;4.40;;;1.10;;
24557;SDS011;12726;49.148;8.582;2023-01-10T15:22:23;3.85;;;1.45;;
24557;SDS011;12726;49.148;8.582;2023-01-10T15:25:23;5.50;;;1.25;;
24557;SDS011;12726;49.148;8.582;2023-01-10T15:28:14;6.47;;;1.23;;
24557;SDS011;12726;49.148;8.582;2023-01-10T15:31:00;5.82;;;1.52;;
24557;SDS011;12726;49.148;8.582;2023-01-10T15:33:47;9.30;;;1.42;;
24557;SDS011;12726;49.148;8.582;2023-01-10T15:36:39;7.03;;;1.60;;
24557;SDS011;12726;49.148;8.582;2023-01-10T15:39:28;4.90;;;1.23;;
24557;SDS011;12726;49.148;8.582;2023-01-10T15:42:15;6.78;;;1.45;;
24557;SDS011;12726;49.148;8.582;2023-01-10T15:45:21;6.47;;;1.50;;
24557;SDS011;12726;49.148;8.582;2023-01-10T15:48:23;6.75;;;1.40;;
24557;SDS011;12726;49.148;8.582;2023-01-10T15:51:11;3.25;;;0.98;;
24557;SDS011;12726;49.148;8.582;2023-01-10T15:53:59;4.80;;;1.60;;
24557;SDS011;12726;49.148;8.582;2023-01-10T15:56:49;7.43;;;1.90;;
24557;SDS011;12726;49.148;8.582;2023-01-10T15:59:37;7.75;;;1.40;;
24557;SDS011;12726;49.148;8.582;2023-01-10T16:02:29;3.83;;;1.10;;
24557;SDS011;12726;49.148;8.582;2023-01-10T16:05:16;5.65;;;1.40;;
24557;SDS011;12726;49.148;8.582;2023-01-10T16:08:02;3.45;;;1.33;;
24557;SDS011;12726;49.148;8.582;2023-01-10T16:10:51;4.07;;;1.35;;
24557;SDS011;12726;49.148;8.582;2023-01-10T16:13:38;4.20;;;1.20;;
24557;SDS011;12726;49.148;8.582;2023-01-10T16:16:24;3.97;;;1.17;;
24557;SDS011;12726;49.148;8.582;2023-01-10T16:19:10;5.13;;;1.20;;
24557;SDS011;12726;49.148;8.582;2023-01-10T16:21:56;7.38;;;1.33;;
24557;SDS011;12726;49.148;8.582;2023-01-10T16:24:43;2.65;;;0.98;;
24557;SDS011;12726;49.148;8.582;2023-01-10T16:27:30;5.00;;;1.33;;
24557;SDS011;12726;49.148;8.582;2023-01-10T16:30:22;5.40;;;1.67;;
24557;SDS011;12726;49.148;8.582;2023-01-10T16:33:09;4.18;;;1.35;;
24557;SDS011;12726;49.148;8.582;2023-01-10T16:36:00;5.38;;;2.20;;
24557;SDS011;12726;49.148;8.582;2023-01-10T16:38:45;6.10;;;1.40;;
24557;SDS011;12726;49.148;8.582;2023-01-10T16:41:31;4.57;;;0.90;;
24557;SDS011;12726;49.148;8.582;2023-01-10T16:47:19;2.92;;;1.02;;
24557;SDS011;12726;49.148;8.582;2023-01-10T16:50:05;3.38;;;0.85;;
24557;SDS011;12726;49.148;8.582;2023-01-10T16:52:52;7.65;;;1.38;;
24557;SDS011;12726;49.148;8.582;2023-01-10T16:55:40;5.00;;;1.10;;
24557;SDS011;12726;49.148;8.582;2023-01-10T16:58:27;6.60;;;1.95;;
24557;SDS011;12726;49.148;8.582;2023-01-10T17:01:13;8.75;;;1.92;;
24557;SDS011;12726;49.148;8.582;2023-01-10T17:04:00;5.97;;;1.70;;
24557;SDS011;12726;49.148;8.582;2023-01-10T17:06:46;4.63;;;1.30;;
24557;SDS011;12726;49.148;8.582;2023-01-10T17:09:33;10.95;;;2.72;;
24557;SDS011;12726;49.148;8.582;2023-01-10T17:12:19;7.53;;;2.63;;
24557;SDS011;12726;49.148;8.582;2023-01-10T17:15:05;7.97;;;1.80;;
24557;SDS011;12726;49.148;8.582;2023-01-10T17:17:52;6.95;;;1.85;;
24557;SDS011;12726;49.148;8.582;2023-01-10T17:20:37;6.78;;;1.67;;